sensor_id;sensor_type;location;lat;lon;timestamp;P1;durP1;ratioP1;P2;durP2;ratioP2
77051;SDS011;65980;44.898;8.602;2023-08-01T00:00:09;6.68;;;3.08;;
77051;SDS011;65980;44.898;8.602;2023-08-01T00:03:16;8.90;;;3.22;;
77051;SDS011;65980;44.898;8.602;2023-08-01T00:06:19;8.60;;;3.47;;
77051;SDS011;65980;44.898;8.602;2023-08-01T00:09:23;8.32;;;3.33;;
77051;SDS011;65980;44.898;8.602;2023-08-01T00:12:27;8.20;;;2.95;;
77051;SDS011;65980;44.898;8.602;2023-08-01T00:15:31;9.52;;;3.08;;
77051;SDS011;65980;44.898;8.602;2023-08-01T00:18:35;8.80;;;3.30;;
77051;SDS011;65980;44.898;8.602;2023-08-01T00:21:40;6.60;;;2.90;;
77051;SDS011;65980;44.898;8.602;2023-08-01T00:24:44;8.80;;;3.13;;
77051;SDS011;65980;44.898;8.602;2023-08-01T00:27:49;8.85;;;3.05;;
77051;SDS011;65980;44.898;8.602;2023-08-01T00:31:02;7.90;;;3.28;;
77051;SDS011;65980;44.898;8.602;2023-08-01T00:34:10;8.93;;;3.33;;
77051;SDS011;65980;44.898;8.602;2023-08-01T00:37:15;8.23;;;3.45;;
77051;SDS011;65980;44.898;8.602;2023-08-01T00:40:19;12.13;;;3.60;;
77051;SDS011;65980;44.898;8.602;2023-08-01T00:43:23;7.45;;;3.10;;
77051;SDS011;65980;44.898;8.602;2023-08-01T00:46:28;9.30;;;3.60;;
77051;SDS011;65980;44.898;8.602;2023-08-01T00:49:33;9.18;;;2.90;;
77051;SDS011;65980;44.898;8.602;2023-08-01T00:52:38;13.10;;;3.90;;
77051;SDS011;65980;44.898;8.602;2023-08-01T00:55:43;4.97;;;2.67;;
77051;SDS011;65980;44.898;8.602;2023-08-01T00:58:48;11.82;;;3.25;;
77051;SDS011;65980;44.898;8.602;2023-08-01T01:01:53;9.40;;;3.10;;
77051;SDS011;65980;44.898;8.602;2023-08-01T01:04:58;6.90;;;3.35;;
77051;SDS011;65980;44.898;8.602;2023-08-01T01:08:02;7.82;;;3.00;;
77051;SDS011;65980;44.898;8.602;2023-08-01T01:11:07;8.80;;;3.20;;
77051;SDS011;65980;44.898;8.602;2023-08-01T01:14:12;6.63;;;3.15;;
77051;SDS011;65980;44.898;8.602;2023-08-01T01:17:16;6.78;;;3.08;;
77051;SDS011;65980;44.898;8.602;2023-08-01T01:20:23;7.38;;;3.17;;
77051;SDS011;65980;44.898;8.602;2023-08-01T01:23:30;8.60;;;3.33;;
77051;SDS011;65980;44.898;8.602;2023-08-01T01:26:36;4.75;;;2.90;;
77051;SDS011;65980;44.898;8.602;2023-08-01T01:29:42;8.20;;;3.35;;
77051;SDS011;65980;44.898;8.602;2023-08-01T01:32:49;7.70;;;3.08;;
77051;SDS011;65980;44.898;8.602;2023-08-01T01:35:54;7.40;;;3.15;;
77051;SDS011;65980;44.898;8.602;2023-08-01T01:38:58;10.32;;;3.30;;
77051;SDS011;65980;44.898;8.602;2023-08-01T01:42:02;8.20;;;3.35;;
77051;SDS011;65980;44.898;8.602;2023-08-01T01:45:07;9.07;;;3.65;;
77051;SDS011;65980;44.898;8.602;2023-08-01T01:48:13;7.18;;;3.00;;
77051;SDS011;65980;44.898;8.602;2023-08-01T01:51:19;8.45;;;3.25;;
77051;SDS011;65980;44.898;8.602;2023-08-01T01:54:23;5.60;;;3.00;;
77051;SDS011;65980;44.898;8.602;2023-08-01T01:57:27;8.15;;;3.40;;
77051;SDS011;65980;44.898;8.602;2023-08-01T02:00:32;9.52;;;3.28;;
77051;SDS011;65980;44.898;8.602;2023-08-01T02:03:36;8.75;;;3.28;;
77051;SDS011;65980;44.898;8.602;2023-08-01T02:06:41;8.20;;;3.15;;
77051;SDS011;65980;44.898;8.602;2023-08-01T02:09:45;8.90;;;3.20;;
77051;SDS011;65980;44.898;8.602;2023-08-01T02:12:50;6.13;;;2.78;;
77051;SDS011;65980;44.898;8.602;2023-08-01T02:15:55;6.13;;;3.08;;
77051;SDS011;65980;44.898;8.602;2023-08-01T02:19:00;7.22;;;2.92;;
77051;SDS011;65980;44.898;8.602;2023-08-01T02:22:04;9.55;;;3.22;;
77051;SDS011;65980;44.898;8.602;2023-08-01T02:25:09;7.93;;;3.15;;
77051;SDS011;65980;44.898;8.602;2023-08-01T02:28:13;7.80;;;2.78;;
77051;SDS011;65980;44.898;8.602;2023-08-01T02:31:18;12.70;;;4.20;;
77051;SDS011;65980;44.898;8.602;2023-08-01T02:34:23;11.43;;;3.10;;
77051;SDS011;65980;44.898;8.602;2023-08-01T02:37:28;8.70;;;3.28;;
77051;SDS011;65980;44.898;8.602;2023-08-01T02:40:31;6.72;;;2.90;;
77051;SDS011;65980;44.898;8.602;2023-08-01T02:43:35;8.65;;;3.05;;
77051;SDS011;65980;44.898;8.602;2023-08-01T02:46:40;8.05;;;3.20;;
77051;SDS011;65980;44.898;8.602;2023-08-01T02:49:44;7.10;;;2.95;;
77051;SDS011;65980;44.898;8.602;2023-08-01T02:52:49;7.28;;;3.20;;
77051;SDS011;65980;44.898;8.602;2023-08-01T02:55:53;5.45;;;2.80;;
77051;SDS011;65980;44.898;8.602;2023-08-01T02:59:00;7.07;;;3.22;;
77051;SDS011;65980;44.898;8.602;2023-08-01T03:02:04;9.55;;;3.30;;
77051;SDS011;65980;44.898;8.602;2023-08-01T03:05:09;5.75;;;2.90;;
77051;SDS011;65980;44.898;8.602;2023-08-01T03:08:15;9.07;;;3.17;;
77051;SDS011;65980;44.898;8.602;2023-08-01T03:11:19;7.80;;;3.30;;
77051;SDS011;65980;44.898;8.602;2023-08-01T03:14:23;6.95;;;3.10;;
77051;SDS011;65980;44.898;8.602;2023-08-01T03:17:27;8.25;;;3.15;;
77051;SDS011;65980;44.898;8.602;2023-08-01T03:20:32;7.55;;;3.28;;
77051;SDS011;65980;44.898;8.602;2023-08-01T03:23:37;4.60;;;2.90;;
77051;SDS011;65980;44.898;8.602;2023-08-01T03:26:43;7.50;;;2.90;;
77051;SDS011;65980;44.898;8.602;2023-08-01T03:29:48;5.78;;;2.85;;
77051;SDS011;65980;44.898;8.602;2023-08-01T03:32:53;9.30;;;3.35;;
77051;SDS011;65980;44.898;8.602;2023-08-01T03:35:58;6.18;;;3.22;;
77051;SDS011;65980;44.898;8.602;2023-08-01T03:39:02;6.55;;;3.17;;
77051;SDS011;65980;44.898;8.602;2023-08-01T03:42:07;6.43;;;3.20;;
77051;SDS011;65980;44.898;8.602;2023-08-01T03:45:12;8.35;;;3.20;;
77051;SDS011;65980;44.898;8.602;2023-08-01T03:48:19;7.53;;;3.33;;
77051;SDS011;65980;44.898;8.602;2023-08-01T03:51:24;6.45;;;3.20;;
77051;SDS011;65980;44.898;8.602;2023-08-01T03:54:30;5.07;;;2.88;;
77051;SDS011;65980;44.898;8.602;2023-08-01T03:57:36;9.57;;;3.40;;
77051;SDS011;65980;44.898;8.602;2023-08-01T04:00:42;5.78;;;2.92;;
77051;SDS011;65980;44.898;8.602;2023-08-01T04:03:46;7.60;;;3.50;;
77051;SDS011;65980;44.898;8.602;2023-08-01T04:06:50;7.40;;;3.72;;
77051;SDS011;65980;44.898;8.602;2023-08-01T04:09:54;6.07;;;3.00;;
77051;SDS011;65980;44.898;8.602;2023-08-01T04:12:58;7.25;;;3.45;;
77051;SDS011;65980;44.898;8.602;2023-08-01T04:16:03;5.97;;;3.30;;
77051;SDS011;65980;44.898;8.602;2023-08-01T04:19:07;8.02;;;3.35;;
77051;SDS011;65980;44.898;8.602;2023-08-01T04:22:11;7.55;;;3.25;;
77051;SDS011;65980;44.898;8.602;2023-08-01T04:25:16;6.70;;;3.30;;
77051;SDS011;65980;44.898;8.602;2023-08-01T04:28:20;7.07;;;3.38;;
77051;SDS011;65980;44.898;8.602;2023-08-01T04:31:24;6.93;;;3.35;;
77051;SDS011;65980;44.898;8.602;2023-08-01T04:34:28;8.32;;;3.60;;
77051;SDS011;65980;44.898;8.602;2023-08-01T04:37:33;9.93;;;3.60;;
77051;SDS011;65980;44.898;8.602;2023-08-01T04:40:37;7.28;;;3.90;;
77051;SDS011;65980;44.898;8.602;2023-08-01T04:43:41;7.40;;;3.63;;
77051;SDS011;65980;44.898;8.602;2023-08-01T04:46:47;9.13;;;3.03;;
77051;SDS011;65980;44.898;8.602;2023-08-01T04:49:52;7.00;;;3.67;;
77051;SDS011;65980;44.898;8.602;2023-08-01T04:52:57;8.65;;;3.65;;
77051;SDS011;65980;44.898;8.602;2023-08-01T04:56:02;7.72;;;3.42;;
77051;SDS011;65980;44.898;8.602;2023-08-01T04:59:07;8.77;;;3.40;;
77051;SDS011;65980;44.898;8.602;2023-08-01T05:02:11;7.70;;;4.53;;
77051;SDS011;65980;44.898;8.602;2023-08-01T05:05:16;7.90;;;3.75;;
77051;SDS011;65980;44.898;8.602;2023-08-01T05:08:21;10.60;;;4.55;;
77051;SDS011;65980;44.898;8.602;2023-08-01T05:11:25;7.45;;;3.70;;
77051;SDS011;65980;44.898;8.602;2023-08-01T05:14:30;9.20;;;4.25;;
77051;SDS011;65980;44.898;8.602;2023-08-01T05:17:34;11.73;;;4.85;;
77051;SDS011;65980;44.898;8.602;2023-08-01T05:20:38;9.18;;;4.57;;
77051;SDS011;65980;44.898;8.602;2023-08-01T05:23:42;11.77;;;4.22;;
77051;SDS011;65980;44.898;8.602;2023-08-01T05:26:47;9.15;;;3.92;;
77051;SDS011;65980;44.898;8.602;2023-08-01T05:29:53;7.55;;;4.05;;
77051;SDS011;65980;44.898;8.602;2023-08-01T05:32:58;10.07;;;4.63;;
77051;SDS011;65980;44.898;8.602;2023-08-01T05:36:02;7.38;;;4.40;;
77051;SDS011;65980;44.898;8.602;2023-08-01T05:39:06;8.82;;;4.40;;
77051;SDS011;65980;44.898;8.602;2023-08-01T05:42:11;5.88;;;3.75;;
77051;SDS011;65980;44.898;8.602;2023-08-01T05:45:15;8.88;;;4.05;;
77051;SDS011;65980;44.898;8.602;2023-08-01T05:48:19;9.10;;;4.22;;
77051;SDS011;65980;44.898;8.602;2023-08-01T05:51:23;9.93;;;4.22;;
77051;SDS011;65980;44.898;8.602;2023-08-01T05:54:28;6.88;;;4.15;;
77051;SDS011;65980;44.898;8.602;2023-08-01T05:57:33;8.93;;;3.85;;
77051;SDS011;65980;44.898;8.602;2023-08-01T06:00:38;8.32;;;3.80;;
77051;SDS011;65980;44.898;8.602;2023-08-01T06:03:44;11.10;;;4.60;;
77051;SDS011;65980;44.898;8.602;2023-08-01T06:06:49;8.23;;;4.25;;
77051;SDS011;65980;44.898;8.602;2023-08-01T06:09:53;8.75;;;4.50;;
77051;SDS011;65980;44.898;8.602;2023-08-01T06:12:57;7.00;;;4.07;;
77051;SDS011;65980;44.898;8.602;2023-08-01T06:16:02;10.63;;;4.28;;
77051;SDS011;65980;44.898;8.602;2023-08-01T06:19:07;10.32;;;4.13;;
77051;SDS011;65980;44.898;8.602;2023-08-01T06:22:12;10.70;;;4.15;;
77051;SDS011;65980;44.898;8.602;2023-08-01T06:25:18;12.75;;;4.72;;
77051;SDS011;65980;44.898;8.602;2023-08-01T06:28:23;9.57;;;4.38;;
77051;SDS011;65980;44.898;8.602;2023-08-01T06:31:27;12.27;;;4.00;;
77051;SDS011;65980;44.898;8.602;2023-08-01T06:34:31;14.48;;;4.30;;
77051;SDS011;65980;44.898;8.602;2023-08-01T06:37:35;11.13;;;3.80;;
77051;SDS011;65980;44.898;8.602;2023-08-01T06:40:41;15.73;;;3.92;;
77051;SDS011;65980;44.898;8.602;2023-08-01T06:43:45;9.35;;;3.92;;
77051;SDS011;65980;44.898;8.602;2023-08-01T06:46:49;12.32;;;4.18;;
77051;SDS011;65980;44.898;8.602;2023-08-01T06:49:53;18.83;;;4.43;;
77051;SDS011;65980;44.898;8.602;2023-08-01T06:52:57;17.20;;;3.95;;
77051;SDS011;65980;44.898;8.602;2023-08-01T06:56:03;10.45;;;3.90;;
77051;SDS011;65980;44.898;8.602;2023-08-01T06:59:08;8.13;;;3.58;;
77051;SDS011;65980;44.898;8.602;2023-08-01T07:02:12;17.70;;;4.68;;
77051;SDS011;65980;44.898;8.602;2023-08-01T07:05:16;19.40;;;5.05;;
77051;SDS011;65980;44.898;8.602;2023-08-01T07:08:20;12.13;;;4.47;;
77051;SDS011;65980;44.898;8.602;2023-08-01T07:11:25;14.80;;;4.40;;
77051;SDS011;65980;44.898;8.602;2023-08-01T07:14:31;12.07;;;4.15;;
77051;SDS011;65980;44.898;8.602;2023-08-01T07:17:35;10.10;;;4.10;;
77051;SDS011;65980;44.898;8.602;2023-08-01T07:20:39;13.65;;;3.88;;
77051;SDS011;65980;44.898;8.602;2023-08-01T07:23:43;9.80;;;3.67;;
77051;SDS011;65980;44.898;8.602;2023-08-01T07:26:47;14.45;;;4.50;;
77051;SDS011;65980;44.898;8.602;2023-08-01T07:29:52;8.30;;;3.90;;
77051;SDS011;65980;44.898;8.602;2023-08-01T07:32:56;9.48;;;3.80;;
77051;SDS011;65980;44.898;8.602;2023-08-01T07:36:00;6.90;;;3.53;;
77051;SDS011;65980;44.898;8.602;2023-08-01T07:39:05;8.35;;;4.13;;
77051;SDS011;65980;44.898;8.602;2023-08-01T07:42:09;8.82;;;3.40;;
77051;SDS011;65980;44.898;8.602;2023-08-01T07:45:14;10.02;;;3.80;;
77051;SDS011;65980;44.898;8.602;2023-08-01T07:48:18;7.20;;;4.13;;
77051;SDS011;65980;44.898;8.602;2023-08-01T07:51:22;14.73;;;4.30;;
77051;SDS011;65980;44.898;8.602;2023-08-01T07:54:26;9.50;;;3.55;;
77051;SDS011;65980;44.898;8.602;2023-08-01T07:57:30;11.05;;;3.90;;
77051;SDS011;65980;44.898;8.602;2023-08-01T08:00:36;11.27;;;4.00;;
77051;SDS011;65980;44.898;8.602;2023-08-01T08:03:40;7.82;;;3.30;;
77051;SDS011;65980;44.898;8.602;2023-08-01T08:06:44;10.10;;;3.60;;
77051;SDS011;65980;44.898;8.602;2023-08-01T08:09:48;9.05;;;3.60;;
77051;SDS011;65980;44.898;8.602;2023-08-01T08:12:54;6.32;;;3.40;;
77051;SDS011;65980;44.898;8.602;2023-08-01T08:16:00;9.15;;;3.75;;
77051;SDS011;65980;44.898;8.602;2023-08-01T08:19:04;11.15;;;3.45;;
77051;SDS011;65980;44.898;8.602;2023-08-01T08:22:08;7.68;;;2.95;;
77051;SDS011;65980;44.898;8.602;2023-08-01T08:25:12;13.15;;;4.10;;
77051;SDS011;65980;44.898;8.602;2023-08-01T08:28:26;9.63;;;3.60;;
77051;SDS011;65980;44.898;8.602;2023-08-01T08:31:34;6.90;;;3.20;;
77051;SDS011;65980;44.898;8.602;2023-08-01T08:34:39;8.93;;;3.33;;
77051;SDS011;65980;44.898;8.602;2023-08-01T08:37:43;9.77;;;3.45;;
77051;SDS011;65980;44.898;8.602;2023-08-01T08:44:15;9.02;;;3.85;;
77051;SDS011;65980;44.898;8.602;2023-08-01T08:47:20;7.32;;;2.90;;
77051;SDS011;65980;44.898;8.602;2023-08-01T08:50:29;9.50;;;3.58;;
77051;SDS011;65980;44.898;8.602;2023-08-01T08:53:35;9.07;;;3.42;;
77051;SDS011;65980;44.898;8.602;2023-08-01T08:56:41;11.35;;;3.50;;
77051;SDS011;65980;44.898;8.602;2023-08-01T08:59:46;9.57;;;3.40;;
77051;SDS011;65980;44.898;8.602;2023-08-01T09:02:51;8.25;;;3.30;;
77051;SDS011;65980;44.898;8.602;2023-08-01T09:06:04;5.65;;;2.90;;
77051;SDS011;65980;44.898;8.602;2023-08-01T09:09:12;9.05;;;3.60;;
77051;SDS011;65980;44.898;8.602;2023-08-01T09:12:17;9.55;;;3.55;;
77051;SDS011;65980;44.898;8.602;2023-08-01T09:15:22;7.30;;;3.10;;
77051;SDS011;65980;44.898;8.602;2023-08-01T09:18:30;12.85;;;3.58;;
77051;SDS011;65980;44.898;8.602;2023-08-01T09:21:36;10.82;;;3.47;;
77051;SDS011;65980;44.898;8.602;2023-08-01T09:24:51;8.85;;;3.13;;
77051;SDS011;65980;44.898;8.602;2023-08-01T09:27:56;15.10;;;3.53;;
77051;SDS011;65980;44.898;8.602;2023-08-01T09:31:01;11.13;;;3.40;;
77051;SDS011;65980;44.898;8.602;2023-08-01T09:34:17;11.55;;;3.47;;
77051;SDS011;65980;44.898;8.602;2023-08-01T09:37:37;7.68;;;3.58;;
77051;SDS011;65980;44.898;8.602;2023-08-01T09:40:46;7.32;;;3.25;;
77051;SDS011;65980;44.898;8.602;2023-08-01T09:43:51;6.82;;;2.92;;
77051;SDS011;65980;44.898;8.602;2023-08-01T09:46:59;7.20;;;3.25;;
77051;SDS011;65980;44.898;8.602;2023-08-01T09:50:04;7.68;;;3.55;;
77051;SDS011;65980;44.898;8.602;2023-08-01T09:53:09;9.65;;;3.40;;
77051;SDS011;65980;44.898;8.602;2023-08-01T09:56:13;8.35;;;3.45;;
77051;SDS011;65980;44.898;8.602;2023-08-01T09:59:21;8.18;;;3.38;;
77051;SDS011;65980;44.898;8.602;2023-08-01T10:02:30;6.53;;;3.63;;
77051;SDS011;65980;44.898;8.602;2023-08-01T10:05:38;9.80;;;3.25;;
77051;SDS011;65980;44.898;8.602;2023-08-01T10:08:44;8.38;;;3.30;;
77051;SDS011;65980;44.898;8.602;2023-08-01T10:11:49;9.57;;;3.30;;
77051;SDS011;65980;44.898;8.602;2023-08-01T10:14:56;6.20;;;3.08;;
77051;SDS011;65980;44.898;8.602;2023-08-01T10:18:05;9.38;;;3.53;;
77051;SDS011;65980;44.898;8.602;2023-08-01T10:21:14;6.35;;;3.22;;
77051;SDS011;65980;44.898;8.602;2023-08-01T10:24:20;12.45;;;3.55;;
77051;SDS011;65980;44.898;8.602;2023-08-01T10:27:26;5.65;;;3.10;;
77051;SDS011;65980;44.898;8.602;2023-08-01T10:30:31;8.98;;;3.47;;
77051;SDS011;65980;44.898;8.602;2023-08-01T10:33:36;7.57;;;3.17;;
77051;SDS011;65980;44.898;8.602;2023-08-01T10:36:52;5.63;;;2.88;;
77051;SDS011;65980;44.898;8.602;2023-08-01T10:40:04;9.48;;;3.15;;
77051;SDS011;65980;44.898;8.602;2023-08-01T10:43:19;7.63;;;3.28;;
77051;SDS011;65980;44.898;8.602;2023-08-01T10:46:27;10.68;;;3.42;;
77051;SDS011;65980;44.898;8.602;2023-08-01T10:49:42;9.20;;;3.60;;
77051;SDS011;65980;44.898;8.602;2023-08-01T10:52:47;8.40;;;3.50;;
77051;SDS011;65980;44.898;8.602;2023-08-01T10:55:53;8.52;;;3.88;;
77051;SDS011;65980;44.898;8.602;2023-08-01T10:58:57;13.43;;;4.28;;
77051;SDS011;65980;44.898;8.602;2023-08-01T11:02:02;9.77;;;3.80;;
77051;SDS011;65980;44.898;8.602;2023-08-01T11:05:06;11.00;;;4.45;;
77051;SDS011;65980;44.898;8.602;2023-08-01T11:08:13;13.75;;;4.00;;
77051;SDS011;65980;44.898;8.602;2023-08-01T11:11:17;7.97;;;3.60;;
77051;SDS011;65980;44.898;8.602;2023-08-01T11:14:23;8.45;;;3.75;;
77051;SDS011;65980;44.898;8.602;2023-08-01T11:17:29;8.50;;;3.40;;
77051;SDS011;65980;44.898;8.602;2023-08-01T11:20:38;8.18;;;4.00;;
77051;SDS011;65980;44.898;8.602;2023-08-01T11:23:42;7.28;;;3.78;;
77051;SDS011;65980;44.898;8.602;2023-08-01T11:26:47;12.45;;;4.05;;
77051;SDS011;65980;44.898;8.602;2023-08-01T11:29:53;10.48;;;3.85;;
77051;SDS011;65980;44.898;8.602;2023-08-01T11:32:58;8.65;;;4.10;;
77051;SDS011;65980;44.898;8.602;2023-08-01T11:36:04;9.23;;;3.63;;
77051;SDS011;65980;44.898;8.602;2023-08-01T11:39:10;7.70;;;3.95;;
77051;SDS011;65980;44.898;8.602;2023-08-01T11:42:17;11.50;;;4.00;;
77051;SDS011;65980;44.898;8.602;2023-08-01T11:45:22;12.80;;;4.13;;
77051;SDS011;65980;44.898;8.602;2023-08-01T11:48:27;9.60;;;3.78;;
77051;SDS011;65980;44.898;8.602;2023-08-01T11:51:38;13.48;;;4.63;;
77051;SDS011;65980;44.898;8.602;2023-08-01T11:54:46;9.85;;;4.20;;
77051;SDS011;65980;44.898;8.602;2023-08-01T11:57:56;10.40;;;3.90;;
77051;SDS011;65980;44.898;8.602;2023-08-01T12:01:11;9.35;;;3.92;;
77051;SDS011;65980;44.898;8.602;2023-08-01T12:04:32;12.40;;;4.50;;
77051;SDS011;65980;44.898;8.602;2023-08-01T12:07:44;12.20;;;4.10;;
77051;SDS011;65980;44.898;8.602;2023-08-01T12:10:49;11.68;;;3.95;;
77051;SDS011;65980;44.898;8.602;2023-08-01T12:14:00;9.80;;;3.95;;
77051;SDS011;65980;44.898;8.602;2023-08-01T12:17:06;16.10;;;4.03;;
77051;SDS011;65980;44.898;8.602;2023-08-01T12:20:10;12.20;;;4.10;;
77051;SDS011;65980;44.898;8.602;2023-08-01T12:23:18;12.57;;;4.20;;
77051;SDS011;65980;44.898;8.602;2023-08-01T12:26:23;10.05;;;3.95;;
77051;SDS011;65980;44.898;8.602;2023-08-01T12:29:27;15.38;;;4.50;;
77051;SDS011;65980;44.898;8.602;2023-08-01T12:32:32;10.85;;;4.18;;
77051;SDS011;65980;44.898;8.602;2023-08-01T12:35:40;8.65;;;3.65;;
77051;SDS011;65980;44.898;8.602;2023-08-01T12:38:45;9.40;;;4.00;;
77051;SDS011;65980;44.898;8.602;2023-08-01T12:41:49;12.52;;;4.10;;
77051;SDS011;65980;44.898;8.602;2023-08-01T12:44:58;10.15;;;3.83;;
77051;SDS011;65980;44.898;8.602;2023-08-01T12:48:02;11.52;;;3.90;;
77051;SDS011;65980;44.898;8.602;2023-08-01T12:51:06;11.93;;;4.45;;
77051;SDS011;65980;44.898;8.602;2023-08-01T12:54:11;10.15;;;4.13;;
77051;SDS011;65980;44.898;8.602;2023-08-01T12:57:16;10.57;;;4.43;;
77051;SDS011;65980;44.898;8.602;2023-08-01T13:00:21;12.23;;;4.18;;
77051;SDS011;65980;44.898;8.602;2023-08-01T13:03:26;9.55;;;4.13;;
77051;SDS011;65980;44.898;8.602;2023-08-01T13:06:31;14.73;;;4.57;;
77051;SDS011;65980;44.898;8.602;2023-08-01T13:09:36;11.50;;;3.67;;
77051;SDS011;65980;44.898;8.602;2023-08-01T13:12:42;9.15;;;4.10;;
77051;SDS011;65980;44.898;8.602;2023-08-01T13:15:50;12.60;;;4.20;;
77051;SDS011;65980;44.898;8.602;2023-08-01T13:23:19;11.00;;;4.07;;
77051;SDS011;65980;44.898;8.602;2023-08-01T13:26:23;16.95;;;4.40;;
77051;SDS011;65980;44.898;8.602;2023-08-01T13:29:27;8.70;;;4.13;;
77051;SDS011;65980;44.898;8.602;2023-08-01T13:32:32;13.18;;;4.53;;
77051;SDS011;65980;44.898;8.602;2023-08-01T13:35:37;12.75;;;4.50;;
77051;SDS011;65980;44.898;8.602;2023-08-01T13:51:50;20.90;;;5.03;;
77051;SDS011;65980;44.898;8.602;2023-08-01T13:54:55;17.08;;;4.10;;
77051;SDS011;65980;44.898;8.602;2023-08-01T13:58:02;11.13;;;4.10;;
77051;SDS011;65980;44.898;8.602;2023-08-01T14:01:08;9.50;;;4.03;;
77051;SDS011;65980;44.898;8.602;2023-08-01T14:04:13;10.40;;;3.75;;
77051;SDS011;65980;44.898;8.602;2023-08-01T14:07:17;10.10;;;4.15;;
77051;SDS011;65980;44.898;8.602;2023-08-01T14:10:21;12.57;;;4.20;;
77051;SDS011;65980;44.898;8.602;2023-08-01T14:13:26;10.68;;;4.10;;
77051;SDS011;65980;44.898;8.602;2023-08-01T14:16:30;12.82;;;4.43;;
77051;SDS011;65980;44.898;8.602;2023-08-01T14:20:25;20.70;;;4.20;;
77051;SDS011;65980;44.898;8.602;2023-08-01T14:26:33;15.40;;;4.32;;
77051;SDS011;65980;44.898;8.602;2023-08-01T14:29:37;10.35;;;4.30;;
77051;SDS011;65980;44.898;8.602;2023-08-01T14:32:45;11.57;;;4.65;;
77051;SDS011;65980;44.898;8.602;2023-08-01T14:35:50;10.90;;;4.50;;
77051;SDS011;65980;44.898;8.602;2023-08-01T14:38:56;13.20;;;4.25;;
77051;SDS011;65980;44.898;8.602;2023-08-01T14:42:00;10.32;;;4.22;;
77051;SDS011;65980;44.898;8.602;2023-08-01T14:45:06;10.20;;;3.90;;
77051;SDS011;65980;44.898;8.602;2023-08-01T14:48:15;10.63;;;4.13;;
77051;SDS011;65980;44.898;8.602;2023-08-01T14:51:20;10.70;;;3.92;;
77051;SDS011;65980;44.898;8.602;2023-08-01T14:56:25;12.85;;;5.32;;
77051;SDS011;65980;44.898;8.602;2023-08-01T14:59:33;11.63;;;3.92;;
77051;SDS011;65980;44.898;8.602;2023-08-01T15:02:38;15.23;;;4.15;;
77051;SDS011;65980;44.898;8.602;2023-08-01T15:05:45;11.93;;;4.13;;
77051;SDS011;65980;44.898;8.602;2023-08-01T15:08:49;9.80;;;4.05;;
77051;SDS011;65980;44.898;8.602;2023-08-01T15:11:54;20.27;;;3.92;;
77051;SDS011;65980;44.898;8.602;2023-08-01T15:14:58;18.75;;;4.90;;
77051;SDS011;65980;44.898;8.602;2023-08-01T15:18:03;12.60;;;4.35;;
77051;SDS011;65980;44.898;8.602;2023-08-01T15:21:08;14.57;;;4.65;;
77051;SDS011;65980;44.898;8.602;2023-08-01T15:24:12;10.77;;;4.38;;
77051;SDS011;65980;44.898;8.602;2023-08-01T15:27:16;15.00;;;4.10;;
77051;SDS011;65980;44.898;8.602;2023-08-01T15:30:21;9.55;;;4.40;;
77051;SDS011;65980;44.898;8.602;2023-08-01T15:33:26;12.18;;;4.68;;
77051;SDS011;65980;44.898;8.602;2023-08-01T15:36:33;12.80;;;4.43;;
77051;SDS011;65980;44.898;8.602;2023-08-01T15:39:47;9.75;;;4.53;;
77051;SDS011;65980;44.898;8.602;2023-08-01T15:42:52;12.02;;;5.10;;
77051;SDS011;65980;44.898;8.602;2023-08-01T15:45:56;14.35;;;5.00;;
77051;SDS011;65980;44.898;8.602;2023-08-01T15:49:01;13.68;;;4.60;;
77051;SDS011;65980;44.898;8.602;2023-08-01T15:52:09;9.68;;;4.43;;
77051;SDS011;65980;44.898;8.602;2023-08-01T15:55:14;11.65;;;4.90;;
77051;SDS011;65980;44.898;8.602;2023-08-01T15:58:18;10.98;;;4.47;;
77051;SDS011;65980;44.898;8.602;2023-08-01T16:01:22;14.93;;;4.53;;
77051;SDS011;65980;44.898;8.602;2023-08-01T16:04:27;9.48;;;4.18;;
77051;SDS011;65980;44.898;8.602;2023-08-01T16:07:31;8.38;;;4.38;;
77051;SDS011;65980;44.898;8.602;2023-08-01T16:10:34;9.93;;;3.90;;
77051;SDS011;65980;44.898;8.602;2023-08-01T16:13:38;11.27;;;4.80;;
77051;SDS011;65980;44.898;8.602;2023-08-01T16:16:42;10.13;;;4.38;;
77051;SDS011;65980;44.898;8.602;2023-08-01T16:19:46;11.15;;;4.80;;
77051;SDS011;65980;44.898;8.602;2023-08-01T16:22:51;11.43;;;4.45;;
77051;SDS011;65980;44.898;8.602;2023-08-01T16:25:56;15.75;;;4.38;;
77051;SDS011;65980;44.898;8.602;2023-08-01T16:29:02;10.13;;;4.53;;
77051;SDS011;65980;44.898;8.602;2023-08-01T16:32:06;12.77;;;4.60;;
77051;SDS011;65980;44.898;8.602;2023-08-01T16:35:10;15.82;;;4.60;;
77051;SDS011;65980;44.898;8.602;2023-08-01T16:38:14;12.52;;;5.10;;
77051;SDS011;65980;44.898;8.602;2023-08-01T16:41:18;12.23;;;4.57;;
77051;SDS011;65980;44.898;8.602;2023-08-01T16:44:24;10.93;;;4.45;;
77051;SDS011;65980;44.898;8.602;2023-08-01T16:47:28;11.13;;;4.63;;
77051;SDS011;65980;44.898;8.602;2023-08-01T16:50:32;13.75;;;4.60;;
77051;SDS011;65980;44.898;8.602;2023-08-01T16:53:36;8.80;;;4.30;;
77051;SDS011;65980;44.898;8.602;2023-08-01T16:56:41;11.45;;;4.47;;
77051;SDS011;65980;44.898;8.602;2023-08-01T16:59:45;13.50;;;4.88;;
77051;SDS011;65980;44.898;8.602;2023-08-01T17:02:49;13.40;;;4.72;;
77051;SDS011;65980;44.898;8.602;2023-08-01T17:05:57;11.65;;;4.75;;
77051;SDS011;65980;44.898;8.602;2023-08-01T17:09:01;15.57;;;4.70;;
77051;SDS011;65980;44.898;8.602;2023-08-01T17:12:10;12.98;;;4.75;;
77051;SDS011;65980;44.898;8.602;2023-08-01T17:15:14;14.57;;;4.95;;
77051;SDS011;65980;44.898;8.602;2023-08-01T17:18:19;11.73;;;4.80;;
77051;SDS011;65980;44.898;8.602;2023-08-01T17:21:24;13.73;;;4.80;;
77051;SDS011;65980;44.898;8.602;2023-08-01T17:24:28;11.73;;;4.68;;
77051;SDS011;65980;44.898;8.602;2023-08-01T17:27:32;16.48;;;5.05;;
77051;SDS011;65980;44.898;8.602;2023-08-01T17:30:37;15.77;;;5.50;;
77051;SDS011;65980;44.898;8.602;2023-08-01T17:33:44;17.23;;;5.10;;
77051;SDS011;65980;44.898;8.602;2023-08-01T17:36:48;15.52;;;5.32;;
77051;SDS011;65980;44.898;8.602;2023-08-01T17:39:52;16.65;;;5.20;;
77051;SDS011;65980;44.898;8.602;2023-08-01T17:42:56;17.02;;;4.90;;
77051;SDS011;65980;44.898;8.602;2023-08-01T17:46:00;13.27;;;5.03;;
77051;SDS011;65980;44.898;8.602;2023-08-01T17:49:05;19.38;;;4.75;;
77051;SDS011;65980;44.898;8.602;2023-08-01T17:52:09;11.57;;;4.95;;
77051;SDS011;65980;44.898;8.602;2023-08-01T17:55:17;12.98;;;4.57;;
77051;SDS011;65980;44.898;8.602;2023-08-01T17:58:23;16.73;;;4.88;;
77051;SDS011;65980;44.898;8.602;2023-08-01T18:01:27;15.35;;;4.78;;
77051;SDS011;65980;44.898;8.602;2023-08-01T18:04:33;19.13;;;5.30;;
77051;SDS011;65980;44.898;8.602;2023-08-01T18:07:38;15.45;;;4.78;;
77051;SDS011;65980;44.898;8.602;2023-08-01T18:10:43;11.55;;;4.47;;
77051;SDS011;65980;44.898;8.602;2023-08-01T18:13:47;11.52;;;5.13;;
77051;SDS011;65980;44.898;8.602;2023-08-01T18:16:51;12.20;;;5.38;;
77051;SDS011;65980;44.898;8.602;2023-08-01T18:19:55;12.13;;;5.22;;
77051;SDS011;65980;44.898;8.602;2023-08-01T18:23:00;13.73;;;5.25;;
77051;SDS011;65980;44.898;8.602;2023-08-01T18:26:04;14.85;;;4.90;;
77051;SDS011;65980;44.898;8.602;2023-08-01T18:29:09;11.85;;;4.97;;
77051;SDS011;65980;44.898;8.602;2023-08-01T18:32:14;12.45;;;4.78;;
77051;SDS011;65980;44.898;8.602;2023-08-01T18:35:18;16.48;;;4.65;;
77051;SDS011;65980;44.898;8.602;2023-08-01T18:38:23;15.05;;;5.45;;
77051;SDS011;65980;44.898;8.602;2023-08-01T18:41:27;15.40;;;5.03;;
77051;SDS011;65980;44.898;8.602;2023-08-01T18:44:31;13.95;;;5.38;;
77051;SDS011;65980;44.898;8.602;2023-08-01T18:47:35;11.18;;;4.70;;
77051;SDS011;65980;44.898;8.602;2023-08-01T18:50:39;11.23;;;4.65;;
77051;SDS011;65980;44.898;8.602;2023-08-01T18:53:43;16.52;;;5.38;;